sensor_id;sensor_type;location;lat;lon;timestamp;P1;durP1;ratioP1;P2;durP2;ratioP2
1935;SDS011;969;49.892;10.896;2023-08-01T00:01:27;4.20;;;3.17;;
1935;SDS011;969;49.892;10.896;2023-08-01T00:03:54;6.30;;;3.80;;
1935;SDS011;969;49.892;10.896;2023-08-01T00:06:19;4.50;;;3.67;;
1935;SDS011;969;49.892;10.896;2023-08-01T00:08:47;4.87;;;3.43;;
1935;SDS011;969;49.892;10.896;2023-08-01T00:11:12;3.97;;;3.53;;
1935;SDS011;969;49.892;10.896;2023-08-01T00:13:39;4.03;;;3.50;;
1935;SDS011;969;49.892;10.896;2023-08-01T00:16:05;6.50;;;3.97;;
1935;SDS011;969;49.892;10.896;2023-08-01T00:18:31;5.20;;;3.40;;
1935;SDS011;969;49.892;10.896;2023-08-01T00:20:56;5.63;;;4.67;;
1935;SDS011;969;49.892;10.896;2023-08-01T00:23:23;5.20;;;3.70;;
1935;SDS011;969;49.892;10.896;2023-08-01T00:25:49;4.87;;;3.90;;
1935;SDS011;969;49.892;10.896;2023-08-01T00:28:17;4.83;;;4.33;;
1935;SDS011;969;49.892;10.896;2023-08-01T00:30:43;5.67;;;3.30;;
1935;SDS011;969;49.892;10.896;2023-08-01T00:33:09;3.87;;;3.47;;
1935;SDS011;969;49.892;10.896;2023-08-01T00:35:34;5.20;;;3.60;;
1935;SDS011;969;49.892;10.896;2023-08-01T00:38:00;4.33;;;3.63;;
1935;SDS011;969;49.892;10.896;2023-08-01T00:40:31;4.40;;;3.90;;
1935;SDS011;969;49.892;10.896;2023-08-01T00:42:58;4.10;;;3.10;;
1935;SDS011;969;49.892;10.896;2023-08-01T00:45:24;4.30;;;3.90;;
1935;SDS011;969;49.892;10.896;2023-08-01T00:47:51;5.57;;;4.10;;
1935;SDS011;969;49.892;10.896;2023-08-01T00:50:18;4.90;;;3.30;;
1935;SDS011;969;49.892;10.896;2023-08-01T00:52:47;4.90;;;3.83;;
1935;SDS011;969;49.892;10.896;2023-08-01T00:55:14;3.67;;;3.20;;
1935;SDS011;969;49.892;10.896;2023-08-01T00:57:40;4.43;;;3.00;;
1935;SDS011;969;49.892;10.896;2023-08-01T01:00:06;3.97;;;3.27;;
1935;SDS011;969;49.892;10.896;2023-08-01T01:02:33;5.10;;;3.27;;
1935;SDS011;969;49.892;10.896;2023-08-01T01:04:59;4.30;;;2.87;;
1935;SDS011;969;49.892;10.896;2023-08-01T01:07:25;5.77;;;3.33;;
1935;SDS011;969;49.892;10.896;2023-08-01T01:09:51;4.63;;;3.67;;
1935;SDS011;969;49.892;10.896;2023-08-01T01:12:17;6.20;;;3.37;;
1935;SDS011;969;49.892;10.896;2023-08-01T01:14:42;4.57;;;3.10;;
1935;SDS011;969;49.892;10.896;2023-08-01T01:17:08;4.53;;;3.47;;
1935;SDS011;969;49.892;10.896;2023-08-01T01:19:33;4.80;;;3.57;;
1935;SDS011;969;49.892;10.896;2023-08-01T01:21:59;3.03;;;2.60;;
1935;SDS011;969;49.892;10.896;2023-08-01T01:24:25;4.50;;;3.43;;
1935;SDS011;969;49.892;10.896;2023-08-01T01:26:53;4.30;;;3.83;;
1935;SDS011;969;49.892;10.896;2023-08-01T01:29:20;4.50;;;3.33;;
1935;SDS011;969;49.892;10.896;2023-08-01T01:31:47;4.40;;;2.93;;
1935;SDS011;969;49.892;10.896;2023-08-01T01:34:14;3.60;;;3.17;;
1935;SDS011;969;49.892;10.896;2023-08-01T01:36:40;8.40;;;3.40;;
1935;SDS011;969;49.892;10.896;2023-08-01T01:39:05;4.37;;;3.47;;
1935;SDS011;969;49.892;10.896;2023-08-01T01:41:31;4.97;;;3.17;;
1935;SDS011;969;49.892;10.896;2023-08-01T01:43:56;4.40;;;3.10;;
1935;SDS011;969;49.892;10.896;2023-08-01T01:46:22;4.00;;;2.73;;
1935;SDS011;969;49.892;10.896;2023-08-01T01:48:47;3.10;;;2.80;;
1935;SDS011;969;49.892;10.896;2023-08-01T01:51:13;4.47;;;3.23;;
1935;SDS011;969;49.892;10.896;2023-08-01T01:53:38;3.47;;;3.17;;
1935;SDS011;969;49.892;10.896;2023-08-01T01:56:04;3.37;;;2.97;;
1935;SDS011;969;49.892;10.896;2023-08-01T01:58:30;4.20;;;3.30;;
1935;SDS011;969;49.892;10.896;2023-08-01T02:00:55;3.83;;;3.17;;
1935;SDS011;969;49.892;10.896;2023-08-01T02:03:21;3.40;;;2.90;;
1935;SDS011;969;49.892;10.896;2023-08-01T02:05:46;3.43;;;3.00;;
1935;SDS011;969;49.892;10.896;2023-08-01T02:08:12;2.50;;;2.30;;
1935;SDS011;969;49.892;10.896;2023-08-01T02:10:37;3.37;;;2.93;;
1935;SDS011;969;49.892;10.896;2023-08-01T02:13:03;4.53;;;3.00;;
1935;SDS011;969;49.892;10.896;2023-08-01T02:15:29;3.10;;;2.60;;
1935;SDS011;969;49.892;10.896;2023-08-01T02:17:54;4.77;;;3.20;;
1935;SDS011;969;49.892;10.896;2023-08-01T02:20:20;3.03;;;2.73;;
1935;SDS011;969;49.892;10.896;2023-08-01T02:22:46;3.60;;;3.20;;
1935;SDS011;969;49.892;10.896;2023-08-01T02:25:12;3.73;;;3.33;;
1935;SDS011;969;49.892;10.896;2023-08-01T02:27:37;4.47;;;3.23;;
1935;SDS011;969;49.892;10.896;2023-08-01T02:30:03;3.40;;;2.77;;
1935;SDS011;969;49.892;10.896;2023-08-01T02:32:30;4.23;;;3.00;;
1935;SDS011;969;49.892;10.896;2023-08-01T02:34:56;3.87;;;2.90;;
1935;SDS011;969;49.892;10.896;2023-08-01T02:37:21;3.07;;;2.60;;
1935;SDS011;969;49.892;10.896;2023-08-01T02:39:47;6.03;;;3.00;;
1935;SDS011;969;49.892;10.896;2023-08-01T02:42:12;3.00;;;2.70;;
1935;SDS011;969;49.892;10.896;2023-08-01T02:44:38;3.50;;;2.93;;
1935;SDS011;969;49.892;10.896;2023-08-01T02:47:04;2.93;;;2.57;;
1935;SDS011;969;49.892;10.896;2023-08-01T02:49:31;3.87;;;3.00;;
1935;SDS011;969;49.892;10.896;2023-08-01T02:51:56;2.93;;;2.60;;
1935;SDS011;969;49.892;10.896;2023-08-01T02:54:23;3.20;;;2.60;;
1935;SDS011;969;49.892;10.896;2023-08-01T02:56:49;2.97;;;2.60;;
1935;SDS011;969;49.892;10.896;2023-08-01T02:59:15;3.50;;;2.83;;
1935;SDS011;969;49.892;10.896;2023-08-01T03:01:40;4.10;;;3.50;;
1935;SDS011;969;49.892;10.896;2023-08-01T03:04:06;3.27;;;2.97;;
1935;SDS011;969;49.892;10.896;2023-08-01T03:06:32;3.83;;;2.90;;
1935;SDS011;969;49.892;10.896;2023-08-01T03:08:58;3.83;;;2.57;;
1935;SDS011;969;49.892;10.896;2023-08-01T03:11:24;3.73;;;2.53;;
1935;SDS011;969;49.892;10.896;2023-08-01T03:13:49;4.87;;;3.30;;
1935;SDS011;969;49.892;10.896;2023-08-01T03:16:15;5.43;;;3.00;;
1935;SDS011;969;49.892;10.896;2023-08-01T03:18:41;3.87;;;3.03;;
1935;SDS011;969;49.892;10.896;2023-08-01T03:21:08;3.57;;;3.03;;
1935;SDS011;969;49.892;10.896;2023-08-01T03:23:33;3.40;;;2.90;;
1935;SDS011;969;49.892;10.896;2023-08-01T03:25:59;4.03;;;2.87;;
1935;SDS011;969;49.892;10.896;2023-08-01T03:28:26;3.03;;;2.43;;
1935;SDS011;969;49.892;10.896;2023-08-01T03:30:51;2.67;;;2.20;;
1935;SDS011;969;49.892;10.896;2023-08-01T03:33:18;4.10;;;3.03;;
1935;SDS011;969;49.892;10.896;2023-08-01T03:35:44;2.93;;;2.50;;
1935;SDS011;969;49.892;10.896;2023-08-01T03:38:10;4.03;;;2.60;;
1935;SDS011;969;49.892;10.896;2023-08-01T03:40:35;3.10;;;2.60;;
1935;SDS011;969;49.892;10.896;2023-08-01T03:43:01;2.70;;;2.50;;
1935;SDS011;969;49.892;10.896;2023-08-01T03:45:27;3.10;;;2.63;;
1935;SDS011;969;49.892;10.896;2023-08-01T03:47:52;4.07;;;2.80;;
1935;SDS011;969;49.892;10.896;2023-08-01T03:50:18;3.17;;;2.87;;
1935;SDS011;969;49.892;10.896;2023-08-01T03:52:43;3.03;;;2.77;;
1935;SDS011;969;49.892;10.896;2023-08-01T03:55:10;2.63;;;2.30;;
1935;SDS011;969;49.892;10.896;2023-08-01T03:57:36;4.27;;;2.80;;
1935;SDS011;969;49.892;10.896;2023-08-01T04:00:03;4.40;;;2.97;;
1935;SDS011;969;49.892;10.896;2023-08-01T04:02:31;3.10;;;2.73;;
1935;SDS011;969;49.892;10.896;2023-08-01T04:04:56;3.43;;;2.67;;
1935;SDS011;969;49.892;10.896;2023-08-01T04:07:22;3.20;;;2.73;;
1935;SDS011;969;49.892;10.896;2023-08-01T04:09:47;3.30;;;2.90;;
1935;SDS011;969;49.892;10.896;2023-08-01T04:12:13;3.67;;;3.00;;
1935;SDS011;969;49.892;10.896;2023-08-01T04:14:39;3.47;;;2.87;;
1935;SDS011;969;49.892;10.896;2023-08-01T04:17:05;3.63;;;2.90;;
1935;SDS011;969;49.892;10.896;2023-08-01T04:19:31;3.17;;;2.57;;
1935;SDS011;969;49.892;10.896;2023-08-01T04:21:56;2.70;;;2.20;;
1935;SDS011;969;49.892;10.896;2023-08-01T04:24:22;3.57;;;2.83;;
1935;SDS011;969;49.892;10.896;2023-08-01T04:26:50;4.33;;;2.90;;
1935;SDS011;969;49.892;10.896;2023-08-01T04:29:16;3.23;;;2.90;;
1935;SDS011;969;49.892;10.896;2023-08-01T04:31:42;4.37;;;2.53;;
1935;SDS011;969;49.892;10.896;2023-08-01T04:34:08;3.93;;;2.53;;
1935;SDS011;969;49.892;10.896;2023-08-01T04:36:34;4.10;;;2.90;;
1935;SDS011;969;49.892;10.896;2023-08-01T04:39:00;3.30;;;2.93;;
1935;SDS011;969;49.892;10.896;2023-08-01T04:41:25;4.27;;;2.93;;
1935;SDS011;969;49.892;10.896;2023-08-01T04:43:51;2.93;;;2.63;;
1935;SDS011;969;49.892;10.896;2023-08-01T04:46:17;3.57;;;3.10;;
1935;SDS011;969;49.892;10.896;2023-08-01T04:48:42;4.33;;;3.93;;
1935;SDS011;969;49.892;10.896;2023-08-01T04:51:08;4.43;;;3.60;;
1935;SDS011;969;49.892;10.896;2023-08-01T04:53:33;3.67;;;2.93;;
1935;SDS011;969;49.892;10.896;2023-08-01T04:55:59;4.80;;;2.60;;
1935;SDS011;969;49.892;10.896;2023-08-01T04:58:24;3.30;;;3.00;;
1935;SDS011;969;49.892;10.896;2023-08-01T05:00:50;3.27;;;2.70;;
1935;SDS011;969;49.892;10.896;2023-08-01T05:03:16;2.83;;;2.50;;
1935;SDS011;969;49.892;10.896;2023-08-01T05:05:42;3.80;;;3.07;;
1935;SDS011;969;49.892;10.896;2023-08-01T05:08:07;3.23;;;2.50;;
1935;SDS011;969;49.892;10.896;2023-08-01T05:10:33;3.33;;;3.03;;
1935;SDS011;969;49.892;10.896;2023-08-01T05:12:58;2.73;;;2.53;;
1935;SDS011;969;49.892;10.896;2023-08-01T05:15:24;4.43;;;3.13;;
1935;SDS011;969;49.892;10.896;2023-08-01T05:17:50;2.80;;;2.50;;
1935;SDS011;969;49.892;10.896;2023-08-01T05:20:15;3.70;;;2.70;;
1935;SDS011;969;49.892;10.896;2023-08-01T05:22:41;4.73;;;3.10;;
1935;SDS011;969;49.892;10.896;2023-08-01T05:25:06;3.70;;;3.40;;
1935;SDS011;969;49.892;10.896;2023-08-01T05:27:32;3.67;;;3.30;;
1935;SDS011;969;49.892;10.896;2023-08-01T05:29:59;4.00;;;2.63;;
1935;SDS011;969;49.892;10.896;2023-08-01T05:32:24;3.90;;;2.97;;
1935;SDS011;969;49.892;10.896;2023-08-01T05:34:50;3.90;;;2.70;;
1935;SDS011;969;49.892;10.896;2023-08-01T05:37:15;4.37;;;3.07;;
1935;SDS011;969;49.892;10.896;2023-08-01T05:39:41;3.37;;;3.03;;
1935;SDS011;969;49.892;10.896;2023-08-01T05:42:07;3.73;;;3.00;;
1935;SDS011;969;49.892;10.896;2023-08-01T05:44:33;3.37;;;2.70;;
1935;SDS011;969;49.892;10.896;2023-08-01T05:46:59;3.33;;;2.80;;
1935;SDS011;969;49.892;10.896;2023-08-01T05:49:25;3.87;;;2.83;;
1935;SDS011;969;49.892;10.896;2023-08-01T05:51:50;4.40;;;2.67;;
1935;SDS011;969;49.892;10.896;2023-08-01T05:54:16;3.13;;;2.40;;
1935;SDS011;969;49.892;10.896;2023-08-01T05:56:42;3.70;;;2.77;;
1935;SDS011;969;49.892;10.896;2023-08-01T05:59:07;2.83;;;2.50;;
1935;SDS011;969;49.892;10.896;2023-08-01T06:01:33;3.33;;;2.90;;
1935;SDS011;969;49.892;10.896;2023-08-01T06:03:59;3.60;;;2.93;;
1935;SDS011;969;49.892;10.896;2023-08-01T06:06:24;3.67;;;2.60;;
1935;SDS011;969;49.892;10.896;2023-08-01T06:08:50;3.60;;;3.07;;
1935;SDS011;969;49.892;10.896;2023-08-01T06:11:16;4.53;;;3.40;;
1935;SDS011;969;49.892;10.896;2023-08-01T06:13:42;4.50;;;2.80;;
1935;SDS011;969;49.892;10.896;2023-08-01T06:16:08;3.70;;;3.30;;
1935;SDS011;969;49.892;10.896;2023-08-01T06:18:33;6.40;;;3.00;;
1935;SDS011;969;49.892;10.896;2023-08-01T06:20:59;6.37;;;3.87;;
1935;SDS011;969;49.892;10.896;2023-08-01T06:23:24;5.47;;;3.83;;
1935;SDS011;969;49.892;10.896;2023-08-01T06:25:50;6.17;;;3.03;;
1935;SDS011;969;49.892;10.896;2023-08-01T06:28:15;4.40;;;2.83;;
1935;SDS011;969;49.892;10.896;2023-08-01T06:30:41;4.80;;;2.80;;
1935;SDS011;969;49.892;10.896;2023-08-01T06:33:06;6.00;;;3.10;;
1935;SDS011;969;49.892;10.896;2023-08-01T06:35:32;5.63;;;3.23;;
1935;SDS011;969;49.892;10.896;2023-08-01T06:37:58;5.37;;;3.47;;
1935;SDS011;969;49.892;10.896;2023-08-01T06:40:23;4.50;;;2.90;;
1935;SDS011;969;49.892;10.896;2023-08-01T06:42:50;4.37;;;2.83;;
1935;SDS011;969;49.892;10.896;2023-08-01T06:45:15;5.27;;;3.60;;
1935;SDS011;969;49.892;10.896;2023-08-01T06:47:41;4.10;;;2.87;;
1935;SDS011;969;49.892;10.896;2023-08-01T06:50:07;4.30;;;2.93;;
1935;SDS011;969;49.892;10.896;2023-08-01T06:52:33;3.10;;;2.80;;
1935;SDS011;969;49.892;10.896;2023-08-01T06:54:58;2.93;;;2.63;;
1935;SDS011;969;49.892;10.896;2023-08-01T06:57:24;3.00;;;2.70;;
1935;SDS011;969;49.892;10.896;2023-08-01T06:59:49;3.30;;;2.50;;
1935;SDS011;969;49.892;10.896;2023-08-01T07:02:15;4.60;;;2.50;;
1935;SDS011;969;49.892;10.896;2023-08-01T07:04:41;5.13;;;2.50;;
1935;SDS011;969;49.892;10.896;2023-08-01T07:07:07;4.63;;;2.90;;
1935;SDS011;969;49.892;10.896;2023-08-01T07:09:33;6.70;;;3.00;;
1935;SDS011;969;49.892;10.896;2023-08-01T07:11:59;3.20;;;2.70;;
1935;SDS011;969;49.892;10.896;2023-08-01T07:14:25;5.83;;;3.07;;
1935;SDS011;969;49.892;10.896;2023-08-01T07:16:50;3.83;;;2.80;;
1935;SDS011;969;49.892;10.896;2023-08-01T07:19:16;3.33;;;2.30;;
1935;SDS011;969;49.892;10.896;2023-08-01T07:21:41;4.27;;;2.60;;
1935;SDS011;969;49.892;10.896;2023-08-01T07:24:09;2.80;;;2.23;;
1935;SDS011;969;49.892;10.896;2023-08-01T07:26:35;4.33;;;2.73;;
1935;SDS011;969;49.892;10.896;2023-08-01T07:29:00;3.90;;;2.63;;
1935;SDS011;969;49.892;10.896;2023-08-01T07:31:26;3.67;;;2.27;;
1935;SDS011;969;49.892;10.896;2023-08-01T07:33:51;10.83;;;3.47;;
1935;SDS011;969;49.892;10.896;2023-08-01T07:36:17;4.17;;;2.50;;
1935;SDS011;969;49.892;10.896;2023-08-01T07:38:43;3.77;;;2.27;;
1935;SDS011;969;49.892;10.896;2023-08-01T07:41:08;2.80;;;2.27;;
1935;SDS011;969;49.892;10.896;2023-08-01T07:43:34;6.93;;;2.23;;
1935;SDS011;969;49.892;10.896;2023-08-01T07:46:00;2.67;;;2.10;;
1935;SDS011;969;49.892;10.896;2023-08-01T07:48:26;3.80;;;2.20;;
1935;SDS011;969;49.892;10.896;2023-08-01T07:50:52;4.20;;;2.70;;
1935;SDS011;969;49.892;10.896;2023-08-01T07:53:17;3.83;;;2.53;;
1935;SDS011;969;49.892;10.896;2023-08-01T07:55:43;3.00;;;2.20;;
1935;SDS011;969;49.892;10.896;2023-08-01T07:58:08;3.00;;;2.20;;
1935;SDS011;969;49.892;10.896;2023-08-01T08:00:34;3.17;;;2.37;;
1935;SDS011;969;49.892;10.896;2023-08-01T08:03:00;2.77;;;2.33;;
1935;SDS011;969;49.892;10.896;2023-08-01T08:05:26;3.47;;;2.57;;
1935;SDS011;969;49.892;10.896;2023-08-01T08:07:51;3.27;;;2.70;;
1935;SDS011;969;49.892;10.896;2023-08-01T08:10:17;4.10;;;3.33;;
1935;SDS011;969;49.892;10.896;2023-08-01T08:12:43;4.10;;;2.83;;
1935;SDS011;969;49.892;10.896;2023-08-01T08:15:08;4.77;;;2.40;;
1935;SDS011;969;49.892;10.896;2023-08-01T08:17:34;2.93;;;2.53;;
1935;SDS011;969;49.892;10.896;2023-08-01T08:20:00;3.23;;;2.50;;
1935;SDS011;969;49.892;10.896;2023-08-01T08:22:25;4.60;;;2.67;;
1935;SDS011;969;49.892;10.896;2023-08-01T08:24:51;2.37;;;2.13;;
1935;SDS011;969;49.892;10.896;2023-08-01T08:27:17;4.50;;;3.17;;
1935;SDS011;969;49.892;10.896;2023-08-01T08:29:42;4.13;;;2.80;;
1935;SDS011;969;49.892;10.896;2023-08-01T08:32:08;3.60;;;2.70;;
1935;SDS011;969;49.892;10.896;2023-08-01T08:34:33;2.53;;;2.07;;
1935;SDS011;969;49.892;10.896;2023-08-01T08:36:59;3.47;;;2.80;;
1935;SDS011;969;49.892;10.896;2023-08-01T08:39:25;3.03;;;2.20;;
1935;SDS011;969;49.892;10.896;2023-08-01T08:41:51;2.80;;;2.50;;
1935;SDS011;969;49.892;10.896;2023-08-01T08:44:18;4.30;;;3.20;;
1935;SDS011;969;49.892;10.896;2023-08-01T08:46:47;3.57;;;2.70;;
1935;SDS011;969;49.892;10.896;2023-08-01T08:49:20;3.47;;;2.33;;
1935;SDS011;969;49.892;10.896;2023-08-01T08:51:47;4.10;;;2.60;;
1935;SDS011;969;49.892;10.896;2023-08-01T08:54:13;3.83;;;2.57;;
1935;SDS011;969;49.892;10.896;2023-08-01T08:56:40;3.40;;;2.67;;
1935;SDS011;969;49.892;10.896;2023-08-01T08:59:07;5.03;;;2.57;;
1935;SDS011;969;49.892;10.896;2023-08-01T09:01:36;4.50;;;3.10;;
1935;SDS011;969;49.892;10.896;2023-08-01T09:04:03;3.70;;;2.50;;
1935;SDS011;969;49.892;10.896;2023-08-01T09:06:30;2.57;;;2.37;;
1935;SDS011;969;49.892;10.896;2023-08-01T09:09:10;3.33;;;2.77;;
1935;SDS011;969;49.892;10.896;2023-08-01T09:11:41;3.30;;;2.50;;
1935;SDS011;969;49.892;10.896;2023-08-01T09:14:09;2.87;;;2.47;;
1935;SDS011;969;49.892;10.896;2023-08-01T09:16:35;3.60;;;2.53;;
1935;SDS011;969;49.892;10.896;2023-08-01T09:19:01;2.73;;;2.37;;
1935;SDS011;969;49.892;10.896;2023-08-01T09:21:27;3.10;;;2.80;;
1935;SDS011;969;49.892;10.896;2023-08-01T09:26:45;2.90;;;2.60;;
1935;SDS011;969;49.892;10.896;2023-08-01T09:29:11;4.07;;;3.20;;
1935;SDS011;969;49.892;10.896;2023-08-01T09:31:40;4.00;;;2.70;;
1935;SDS011;969;49.892;10.896;2023-08-01T09:34:17;3.20;;;2.37;;
1935;SDS011;969;49.892;10.896;2023-08-01T09:36:48;3.07;;;2.77;;
1935;SDS011;969;49.892;10.896;2023-08-01T09:39:21;2.30;;;2.10;;
1935;SDS011;969;49.892;10.896;2023-08-01T09:41:57;3.47;;;2.50;;
1935;SDS011;969;49.892;10.896;2023-08-01T09:44:27;3.10;;;2.17;;
1935;SDS011;969;49.892;10.896;2023-08-01T09:49:26;2.37;;;2.00;;
1935;SDS011;969;49.892;10.896;2023-08-01T09:51:56;3.60;;;2.77;;
1935;SDS011;969;49.892;10.896;2023-08-01T09:54:22;2.83;;;2.57;;
1935;SDS011;969;49.892;10.896;2023-08-01T09:56:49;3.27;;;2.60;;
1935;SDS011;969;49.892;10.896;2023-08-01T09:59:25;4.03;;;2.50;;
1935;SDS011;969;49.892;10.896;2023-08-01T10:01:52;2.77;;;2.30;;
1935;SDS011;969;49.892;10.896;2023-08-01T10:04:31;2.23;;;1.90;;
1935;SDS011;969;49.892;10.896;2023-08-01T10:07:08;3.20;;;1.90;;
1935;SDS011;969;49.892;10.896;2023-08-01T10:09:39;4.07;;;2.43;;
1935;SDS011;969;49.892;10.896;2023-08-01T10:12:06;2.93;;;2.50;;
1935;SDS011;969;49.892;10.896;2023-08-01T10:14:32;3.10;;;2.47;;
1935;SDS011;969;49.892;10.896;2023-08-01T10:16:58;2.80;;;2.17;;
1935;SDS011;969;49.892;10.896;2023-08-01T10:19:24;3.80;;;1.97;;
1935;SDS011;969;49.892;10.896;2023-08-01T10:21:51;2.97;;;2.43;;
1935;SDS011;969;49.892;10.896;2023-08-01T10:24:18;2.37;;;1.70;;
1935;SDS011;969;49.892;10.896;2023-08-01T10:26:45;2.90;;;2.13;;
1935;SDS011;969;49.892;10.896;2023-08-01T10:29:13;2.40;;;2.03;;
1935;SDS011;969;49.892;10.896;2023-08-01T10:31:39;2.77;;;1.90;;
1935;SDS011;969;49.892;10.896;2023-08-01T10:34:15;3.27;;;2.00;;
1935;SDS011;969;49.892;10.896;2023-08-01T10:36:40;2.53;;;1.97;;
1935;SDS011;969;49.892;10.896;2023-08-01T10:39:06;2.33;;;1.73;;
1935;SDS011;969;49.892;10.896;2023-08-01T10:49:18;2.70;;;2.20;;
1935;SDS011;969;49.892;10.896;2023-08-01T10:51:46;2.53;;;1.87;;
1935;SDS011;969;49.892;10.896;2023-08-01T10:54:22;3.20;;;1.77;;
1935;SDS011;969;49.892;10.896;2023-08-01T10:56:49;4.30;;;1.70;;
1935;SDS011;969;49.892;10.896;2023-08-01T10:59:16;2.57;;;2.07;;
1935;SDS011;969;49.892;10.896;2023-08-01T11:01:46;3.00;;;1.83;;
1935;SDS011;969;49.892;10.896;2023-08-01T11:04:21;2.70;;;2.10;;
1935;SDS011;969;49.892;10.896;2023-08-01T11:06:50;2.90;;;2.30;;
1935;SDS011;969;49.892;10.896;2023-08-01T11:09:27;3.20;;;2.27;;
1935;SDS011;969;49.892;10.896;2023-08-01T11:11:54;2.50;;;2.20;;
1935;SDS011;969;49.892;10.896;2023-08-01T11:14:22;2.70;;;2.17;;
1935;SDS011;969;49.892;10.896;2023-08-01T11:16:49;3.90;;;3.03;;
1935;SDS011;969;49.892;10.896;2023-08-01T11:19:18;6.33;;;3.03;;
1935;SDS011;969;49.892;10.896;2023-08-01T11:21:45;5.80;;;3.13;;
1935;SDS011;969;49.892;10.896;2023-08-01T11:24:11;3.63;;;3.00;;
1935;SDS011;969;49.892;10.896;2023-08-01T11:26:40;4.17;;;3.77;;
1935;SDS011;969;49.892;10.896;2023-08-01T11:29:06;4.30;;;3.47;;
1935;SDS011;969;49.892;10.896;2023-08-01T11:31:32;4.90;;;3.60;;
1935;SDS011;969;49.892;10.896;2023-08-01T11:33:58;5.40;;;3.70;;
1935;SDS011;969;49.892;10.896;2023-08-01T11:36:27;4.70;;;4.20;;
1935;SDS011;969;49.892;10.896;2023-08-01T11:38:54;5.03;;;3.97;;
1935;SDS011;969;49.892;10.896;2023-08-01T11:41:23;5.37;;;4.43;;
1935;SDS011;969;49.892;10.896;2023-08-01T11:43:50;5.23;;;3.80;;
1935;SDS011;969;49.892;10.896;2023-08-01T11:46:16;4.80;;;3.27;;
1935;SDS011;969;49.892;10.896;2023-08-01T11:48:45;4.23;;;3.57;;
1935;SDS011;969;49.892;10.896;2023-08-01T11:51:11;4.10;;;3.43;;
1935;SDS011;969;49.892;10.896;2023-08-01T11:53:37;7.10;;;4.30;;
1935;SDS011;969;49.892;10.896;2023-08-01T11:56:04;5.17;;;3.73;;
1935;SDS011;969;49.892;10.896;2023-08-01T11:58:30;6.60;;;3.43;;
1935;SDS011;969;49.892;10.896;2023-08-01T12:01:07;5.00;;;3.80;;
1935;SDS011;969;49.892;10.896;2023-08-01T12:06:14;3.77;;;3.07;;
1935;SDS011;969;49.892;10.896;2023-08-01T12:08:44;5.40;;;4.00;;
1935;SDS011;969;49.892;10.896;2023-08-01T12:11:24;4.53;;;3.40;;
1935;SDS011;969;49.892;10.896;2023-08-01T12:16:28;3.77;;;3.07;;
1935;SDS011;969;49.892;10.896;2023-08-01T12:18:54;4.30;;;3.90;;
1935;SDS011;969;49.892;10.896;2023-08-01T12:21:20;4.30;;;3.27;;
1935;SDS011;969;49.892;10.896;2023-08-01T12:23:46;5.93;;;4.10;;
1935;SDS011;969;49.892;10.896;2023-08-01T12:26:12;6.20;;;3.50;;
1935;SDS011;969;49.892;10.896;2023-08-01T12:28:37;4.17;;;3.53;;
1935;SDS011;969;49.892;10.896;2023-08-01T12:31:03;4.97;;;3.77;;
1935;SDS011;969;49.892;10.896;2023-08-01T12:33:29;6.30;;;3.40;;
1935;SDS011;969;49.892;10.896;2023-08-01T12:35:54;4.23;;;3.30;;
1935;SDS011;969;49.892;10.896;2023-08-01T12:38:20;3.90;;;3.50;;
1935;SDS011;969;49.892;10.896;2023-08-01T12:40:46;4.73;;;3.73;;
1935;SDS011;969;49.892;10.896;2023-08-01T12:43:12;5.83;;;3.63;;
1935;SDS011;969;49.892;10.896;2023-08-01T12:45:37;4.20;;;3.33;;
1935;SDS011;969;49.892;10.896;2023-08-01T12:48:03;4.07;;;3.33;;
1935;SDS011;969;49.892;10.896;2023-08-01T12:50:29;4.17;;;3.13;;
1935;SDS011;969;49.892;10.896;2023-08-01T12:52:54;5.77;;;3.43;;
1935;SDS011;969;49.892;10.896;2023-08-01T12:55:20;4.30;;;3.20;;
1935;SDS011;969;49.892;10.896;2023-08-01T12:57:45;6.10;;;3.53;;
1935;SDS011;969;49.892;10.896;2023-08-01T13:00:11;5.80;;;3.63;;
1935;SDS011;969;49.892;10.896;2023-08-01T13:02:37;5.37;;;3.80;;
1935;SDS011;969;49.892;10.896;2023-08-01T13:05:03;4.60;;;3.10;;
1935;SDS011;969;49.892;10.896;2023-08-01T13:07:30;5.17;;;3.33;;
1935;SDS011;969;49.892;10.896;2023-08-01T13:09:59;4.83;;;3.40;;
1935;SDS011;969;49.892;10.896;2023-08-01T13:12:25;3.90;;;2.93;;
1935;SDS011;969;49.892;10.896;2023-08-01T13:14:51;5.07;;;3.23;;
1935;SDS011;969;49.892;10.896;2023-08-01T13:17:16;3.43;;;3.13;;
1935;SDS011;969;49.892;10.896;2023-08-01T13:19:42;4.60;;;3.50;;
1935;SDS011;969;49.892;10.896;2023-08-01T13:22:07;5.10;;;3.40;;
1935;SDS011;969;49.892;10.896;2023-08-01T13:24:33;4.53;;;3.60;;
1935;SDS011;969;49.892;10.896;2023-08-01T13:26:59;6.03;;;3.07;;
1935;SDS011;969;49.892;10.896;2023-08-01T13:29:25;8.60;;;3.13;;
1935;SDS011;969;49.892;10.896;2023-08-01T13:31:50;5.87;;;3.57;;
1935;SDS011;969;49.892;10.896;2023-08-01T13:34:16;6.60;;;3.80;;
1935;SDS011;969;49.892;10.896;2023-08-01T13:36:42;4.60;;;3.00;;
1935;SDS011;969;49.892;10.896;2023-08-01T13:39:08;4.50;;;3.67;;
1935;SDS011;969;49.892;10.896;2023-08-01T13:41:34;5.03;;;2.90;;
1935;SDS011;969;49.892;10.896;2023-08-01T13:44:00;4.33;;;3.40;;
1935;SDS011;969;49.892;10.896;2023-08-01T13:46:25;4.17;;;3.03;;
1935;SDS011;969;49.892;10.896;2023-08-01T13:48:51;4.53;;;3.37;;
1935;SDS011;969;49.892;10.896;2023-08-01T13:51:17;3.37;;;3.00;;
1935;SDS011;969;49.892;10.896;2023-08-01T13:53:42;6.20;;;3.50;;
1935;SDS011;969;49.892;10.896;2023-08-01T13:56:08;5.60;;;3.07;;
1935;SDS011;969;49.892;10.896;2023-08-01T13:58:34;4.87;;;3.40;;
1935;SDS011;969;49.892;10.896;2023-08-01T14:01:07;5.00;;;3.50;;
1935;SDS011;969;49.892;10.896;2023-08-01T14:03:37;3.33;;;2.83;;
1935;SDS011;969;49.892;10.896;2023-08-01T14:06:06;6.50;;;3.20;;
1935;SDS011;969;49.892;10.896;2023-08-01T14:08:34;5.40;;;3.10;;
1935;SDS011;969;49.892;10.896;2023-08-01T14:11:01;6.70;;;2.90;;
1935;SDS011;969;49.892;10.896;2023-08-01T14:13:28;4.80;;;3.43;;
1935;SDS011;969;49.892;10.896;2023-08-01T14:15:53;6.73;;;3.47;;
1935;SDS011;969;49.892;10.896;2023-08-01T14:18:19;4.50;;;2.93;;
1935;SDS011;969;49.892;10.896;2023-08-01T14:20:44;6.30;;;3.60;;
1935;SDS011;969;49.892;10.896;2023-08-01T14:23:13;3.50;;;2.90;;
1935;SDS011;969;49.892;10.896;2023-08-01T14:25:39;5.60;;;2.90;;
1935;SDS011;969;49.892;10.896;2023-08-01T14:28:04;5.37;;;3.00;;
1935;SDS011;969;49.892;10.896;2023-08-01T14:30:30;5.67;;;3.00;;
1935;SDS011;969;49.892;10.896;2023-08-01T14:32:59;4.97;;;3.07;;
1935;SDS011;969;49.892;10.896;2023-08-01T14:35:25;6.17;;;3.50;;
1935;SDS011;969;49.892;10.896;2023-08-01T14:37:51;5.83;;;3.90;;
1935;SDS011;969;49.892;10.896;2023-08-01T14:40:17;4.00;;;2.60;;
1935;SDS011;969;49.892;10.896;2023-08-01T14:42:42;6.30;;;2.80;;
1935;SDS011;969;49.892;10.896;2023-08-01T14:45:08;5.90;;;3.03;;
1935;SDS011;969;49.892;10.896;2023-08-01T14:47:34;3.20;;;2.87;;
1935;SDS011;969;49.892;10.896;2023-08-01T14:50:02;4.60;;;2.60;;
1935;SDS011;969;49.892;10.896;2023-08-01T14:52:29;3.83;;;2.63;;
1935;SDS011;969;49.892;10.896;2023-08-01T14:54:54;3.73;;;3.13;;
1935;SDS011;969;49.892;10.896;2023-08-01T14:57:20;4.87;;;2.93;;
1935;SDS011;969;49.892;10.896;2023-08-01T14:59:45;7.10;;;3.40;;
1935;SDS011;969;49.892;10.896;2023-08-01T15:02:11;3.37;;;2.30;;
1935;SDS011;969;49.892;10.896;2023-08-01T15:04:36;4.40;;;2.80;;
1935;SDS011;969;49.892;10.896;2023-08-01T15:07:02;4.00;;;2.90;;
1935;SDS011;969;49.892;10.896;2023-08-01T15:09:29;4.97;;;3.10;;
1935;SDS011;969;49.892;10.896;2023-08-01T15:11:55;4.97;;;3.13;;
1935;SDS011;969;49.892;10.896;2023-08-01T15:14:20;6.20;;;3.00;;
1935;SDS011;969;49.892;10.896;2023-08-01T15:16:47;6.53;;;3.73;;
1935;SDS011;969;49.892;10.896;2023-08-01T15:19:13;3.90;;;2.30;;
1935;SDS011;969;49.892;10.896;2023-08-01T15:21:39;5.67;;;2.50;;
1935;SDS011;969;49.892;10.896;2023-08-01T15:24:04;5.00;;;2.70;;
1935;SDS011;969;49.892;10.896;2023-08-01T15:26:30;3.77;;;2.17;;
1935;SDS011;969;49.892;10.896;2023-08-01T15:28:56;5.93;;;2.87;;